5XS6 weather

Old Reb Airport
Mercedes, Texas, United States

Public forecast

Using degrees Fahrenheit for public forecast. Weather courtesy of forecast.io.

Closest aviation weather report (METAR) to Old Reb Airport

Closest report is Mid Valley Airport, 5.3 nm (9.8 km) W. Retrieved 2019/10/15 00:35 UTC (17 minutes ago):

KTXW 150035Z AUTO 16008KT 10SM SCT110 29/21 A2988 RMK AO2 T02930207

Closest aviation forecast (TAF) to Old Reb Airport

Closest forecast is Valley International Airport, 12.3 nm (22.8 km) ENE. Retrieved 2019-10-15 00:22 UTC (30 minutes ago):

TAF KHRL 142320Z 1500/1524 12010KT P6SM FEW040 FEW250 FM150900 16007KT P6SM FEW023 FEW250 FM151200 14005KT P6SM FEW012 FEW150 FM151500 16010KT P6SM FEW022 SCT100